createdAt,value
2018-12-30T00:03:29.499Z,8.20
2018-12-30T00:13:35.230Z,8.50
2018-12-30T00:23:40.981Z,8.40
2018-12-30T00:33:46.529Z,8.50
2018-12-30T00:43:52.073Z,8.60
2018-12-30T00:53:57.522Z,8.60
2018-12-30T01:04:02.903Z,8.60
2018-12-30T01:14:08.607Z,8.60
2018-12-30T01:24:14.014Z,8.70
2018-12-30T01:34:19.360Z,8.80
2018-12-30T01:44:24.770Z,9.00
2018-12-30T01:54:30.081Z,9.00
2018-12-30T02:04:35.451Z,9.00
2018-12-30T02:14:40.809Z,8.80
2018-12-30T02:24:46.159Z,8.40
2018-12-30T02:34:51.496Z,8.10
2018-12-30T02:44:56.855Z,8.00
2018-12-30T02:55:02.287Z,7.90
2018-12-30T03:05:07.840Z,7.90
2018-12-30T03:15:13.857Z,7.80
2018-12-30T03:25:19.471Z,7.80
2018-12-30T03:35:24.764Z,7.80
2018-12-30T03:45:30.095Z,7.70
2018-12-30T03:55:35.415Z,7.80
2018-12-30T04:05:40.837Z,7.80
2018-12-30T04:15:46.145Z,7.70
2018-12-30T04:25:51.458Z,7.60
2018-12-30T04:35:56.787Z,7.60
2018-12-30T04:46:02.135Z,7.70
2018-12-30T04:56:07.453Z,7.70
2018-12-30T05:06:12.799Z,7.60
2018-12-30T05:16:18.261Z,7.60
2018-12-30T05:26:23.682Z,7.50
2018-12-30T05:36:28.948Z,7.60
2018-12-30T05:46:34.299Z,7.50
2018-12-30T05:56:39.702Z,7.50
2018-12-30T06:06:45.170Z,7.40
2018-12-30T06:16:50.481Z,7.40
2018-12-30T06:26:58.964Z,7.40
2018-12-30T06:37:04.232Z,7.40
2018-12-30T06:47:09.616Z,7.50
2018-12-30T06:57:14.928Z,7.50
2018-12-30T07:07:20.190Z,7.50
2018-12-30T07:17:25.596Z,7.50
2018-12-30T07:27:30.974Z,7.40
2018-12-30T07:37:36.345Z,7.40
2018-12-30T07:47:41.562Z,7.50
2018-12-30T07:57:46.868Z,7.70
2018-12-30T08:07:52.141Z,7.60
2018-12-30T08:17:57.488Z,7.70
2018-12-30T08:28:02.798Z,7.70
2018-12-30T08:38:08.100Z,7.80
2018-12-30T08:48:13.499Z,8.00
2018-12-30T08:58:18.857Z,8.00
2018-12-30T09:08:24.183Z,8.10
2018-12-30T09:18:30.501Z,8.10
2018-12-30T09:28:35.943Z,8.20
2018-12-30T09:38:42.375Z,8.20
2018-12-30T09:48:47.939Z,8.20
2018-12-30T09:58:53.464Z,8.10
2018-12-30T10:08:59.048Z,8.20
2018-12-30T10:19:08.041Z,8.10
2018-12-30T10:29:13.553Z,8.30
2018-12-30T10:39:18.863Z,8.30
2018-12-30T10:49:24.257Z,8.30
2018-12-30T10:59:29.637Z,8.20
2018-12-30T11:09:34.879Z,7.80
2018-12-30T11:19:40.306Z,7.60
2018-12-30T11:29:45.831Z,7.50
2018-12-30T11:39:51.308Z,7.40
2018-12-30T11:49:56.824Z,7.20
2018-12-30T12:00:02.242Z,7.40
2018-12-30T12:10:08.050Z,7.30
2018-12-30T12:20:13.403Z,7.30
2018-12-30T12:30:18.831Z,7.00
2018-12-30T12:40:24.390Z,6.80
2018-12-30T12:50:29.693Z,6.70
2018-12-30T13:00:35.031Z,6.70
2018-12-30T13:10:40.469Z,6.80
2018-12-30T13:20:45.760Z,7.00
2018-12-30T13:30:51.146Z,7.00
2018-12-30T13:40:56.442Z,7.00
2018-12-30T13:51:01.899Z,7.00
2018-12-30T14:01:07.455Z,6.90
2018-12-30T14:11:12.813Z,6.90
2018-12-30T14:21:18.211Z,6.70
2018-12-30T14:31:23.505Z,6.70
2018-12-30T14:41:28.939Z,6.70
2018-12-30T14:51:34.297Z,6.70
2018-12-30T15:01:39.950Z,6.60
2018-12-30T15:11:45.386Z,6.40
2018-12-30T15:21:50.790Z,6.40
2018-12-30T15:31:56.294Z,6.20
2018-12-30T15:42:01.775Z,6.20
2018-12-30T15:52:07.300Z,6.30
2018-12-30T16:02:12.676Z,6.30
2018-12-30T16:12:18.073Z,6.30
2018-12-30T16:22:23.842Z,6.50
2018-12-30T16:32:29.238Z,6.60
2018-12-30T16:42:34.606Z,6.70
2018-12-30T16:52:40.096Z,6.80
2018-12-30T17:02:45.500Z,6.90
2018-12-30T17:12:51.015Z,7.10
2018-12-30T17:22:56.383Z,7.30
2018-12-30T17:33:01.745Z,7.30
2018-12-30T17:43:07.130Z,7.50
2018-12-30T17:53:12.518Z,7.50
2018-12-30T18:03:17.920Z,7.60
2018-12-30T18:13:23.356Z,7.60
2018-12-30T18:23:28.793Z,7.50
2018-12-30T18:33:34.158Z,7.40
2018-12-30T18:43:39.586Z,7.30
2018-12-30T18:53:44.955Z,7.30
2018-12-30T19:03:50.457Z,7.30
2018-12-30T19:13:55.858Z,7.30
2018-12-30T19:24:01.183Z,7.30
2018-12-30T19:34:06.671Z,7.40
2018-12-30T19:44:13.041Z,7.30
2018-12-30T19:54:18.592Z,7.20
2018-12-30T20:04:24.133Z,7.20
2018-12-30T20:14:29.509Z,7.00
2018-12-30T20:24:34.893Z,6.90
2018-12-30T20:34:40.495Z,6.80
2018-12-30T20:44:45.915Z,6.80
2018-12-30T20:54:51.332Z,6.70
2018-12-30T21:04:56.986Z,6.60
2018-12-30T21:15:02.341Z,6.70
2018-12-30T21:25:07.677Z,6.60
2018-12-30T21:35:12.996Z,6.60
2018-12-30T21:45:18.427Z,6.60
2018-12-30T21:55:23.748Z,6.50
2018-12-30T22:05:29.093Z,6.50
2018-12-30T22:15:34.678Z,6.60
2018-12-30T22:25:40.051Z,6.60
2018-12-30T22:35:45.442Z,6.40
2018-12-30T22:45:50.799Z,6.30
2018-12-30T22:55:56.168Z,6.30
2018-12-30T23:06:01.545Z,6.20
2018-12-30T23:16:07.002Z,6.10
2018-12-30T23:26:12.305Z,5.90
2018-12-30T23:36:17.682Z,5.80
2018-12-30T23:46:23.010Z,5.80
2018-12-30T23:56:28.399Z,5.90
